createdAt,value
2022-10-15T00:00:53.331Z,15.15
2022-10-15T00:03:20.829Z,16.73
2022-10-15T00:05:48.297Z,16.52
2022-10-15T00:08:15.670Z,15.77
2022-10-15T00:10:43.014Z,17.45
2022-10-15T00:13:10.622Z,17.70
2022-10-15T00:15:38.220Z,16.42
2022-10-15T00:18:05.702Z,17.25
2022-10-15T00:20:33.181Z,17.23
2022-10-15T00:23:00.783Z,18.48
2022-10-15T00:25:28.406Z,17.52
2022-10-15T00:27:55.877Z,16.80
2022-10-15T00:30:23.350Z,16.77
2022-10-15T00:32:50.837Z,18.35
2022-10-15T00:35:18.465Z,16.90
2022-10-15T00:37:46.276Z,16.95
2022-10-15T00:40:16.080Z,17.00
2022-10-15T00:42:43.539Z,16.50
2022-10-15T00:45:16.171Z,17.92
2022-10-15T00:47:49.043Z,15.93
2022-10-15T00:50:28.903Z,17.15
2022-10-15T00:53:03.823Z,16.88
2022-10-15T00:55:33.445Z,17.55
2022-10-15T00:58:03.626Z,16.08
2022-10-15T01:00:31.777Z,16.88
2022-10-15T01:02:59.372Z,17.10
2022-10-15T01:05:27.456Z,16.30
2022-10-15T01:07:54.817Z,16.17
2022-10-15T01:10:22.417Z,16.95
2022-10-15T01:13:12.345Z,16.05
2022-10-15T01:16:23.383Z,16.77
2022-10-15T01:19:04.905Z,15.35
2022-10-15T01:21:50.524Z,16.42
2022-10-15T01:24:39.376Z,16.05
2022-10-15T01:27:29.036Z,15.73
2022-10-15T01:30:21.354Z,14.48
2022-10-15T01:32:54.952Z,16.65
2022-10-15T01:35:26.636Z,15.60
2022-10-15T01:38:21.119Z,17.63
2022-10-15T01:41:01.200Z,16.85
2022-10-15T01:44:06.595Z,16.35
2022-10-15T01:46:55.680Z,16.60
2022-10-15T01:49:26.436Z,18.55
2022-10-15T01:51:54.720Z,16.05
2022-10-15T01:54:24.604Z,15.85
2022-10-15T01:56:52.803Z,16.17
2022-10-15T01:59:23.284Z,17.27
2022-10-15T02:01:51.018Z,16.73
2022-10-15T02:04:23.770Z,16.63
2022-10-15T02:07:14.421Z,16.55
2022-10-15T02:10:05.057Z,18.30
2022-10-15T02:12:42.495Z,16.52
2022-10-15T02:15:36.631Z,16.50
2022-10-15T02:18:19.586Z,16.88
2022-10-15T02:21:48.174Z,16.92
2022-10-15T02:24:24.640Z,16.85
2022-10-15T02:26:54.748Z,17.08
2022-10-15T02:29:24.155Z,16.25
2022-10-15T02:31:52.959Z,16.65
2022-10-15T02:34:22.230Z,16.75
2022-10-15T02:36:50.192Z,16.52
2022-10-15T02:39:22.487Z,16.15
2022-10-15T02:41:50.689Z,16.55
2022-10-15T02:44:18.399Z,17.63
2022-10-15T02:46:46.004Z,16.15
2022-10-15T02:49:13.479Z,16.02
2022-10-15T02:51:41.205Z,16.05
2022-10-15T02:54:08.684Z,16.85
2022-10-15T02:56:36.293Z,15.88
2022-10-15T02:59:06.050Z,16.65
2022-10-15T03:01:34.491Z,16.83
2022-10-15T03:04:02.448Z,15.95
2022-10-15T03:06:29.814Z,18.30
2022-10-15T03:08:57.300Z,16.77
2022-10-15T03:11:24.652Z,16.60
2022-10-15T03:13:52.257Z,15.73
2022-10-15T03:16:19.744Z,16.88
2022-10-15T03:18:47.346Z,15.98
2022-10-15T03:21:14.702Z,15.35
2022-10-15T03:23:42.666Z,15.30
2022-10-15T03:26:10.040Z,17.10
2022-10-15T03:28:37.554Z,15.13
2022-10-15T03:31:05.122Z,15.52
2022-10-15T03:33:32.708Z,16.17
2022-10-15T03:36:00.554Z,16.73
2022-10-15T03:38:28.277Z,16.60
2022-10-15T03:40:55.654Z,16.33
2022-10-15T03:43:26.475Z,15.23
2022-10-15T03:45:53.960Z,15.70
2022-10-15T03:48:22.517Z,16.15
2022-10-15T03:50:50.019Z,16.23
2022-10-15T03:53:17.599Z,14.73
2022-10-15T03:55:45.085Z,16.23
2022-10-15T03:58:12.595Z,14.82
2022-10-15T04:00:44.472Z,15.95
2022-10-15T04:03:12.104Z,14.43
2022-10-15T04:05:39.692Z,16.60
2022-10-15T04:08:07.065Z,16.40
2022-10-15T04:10:34.776Z,15.88
2022-10-15T04:13:02.143Z,16.02
2022-10-15T04:15:29.502Z,15.55
2022-10-15T04:17:56.887Z,14.75
2022-10-15T04:20:24.360Z,15.68
2022-10-15T04:22:51.955Z,17.05
2022-10-15T04:25:19.320Z,16.90
2022-10-15T04:27:47.157Z,14.70
2022-10-15T04:30:14.755Z,15.82
2022-10-15T04:32:42.246Z,15.20
2022-10-15T04:35:10.088Z,15.75
2022-10-15T04:37:37.554Z,14.40
2022-10-15T04:40:05.872Z,15.25
2022-10-15T04:42:33.362Z,17.13
2022-10-15T04:45:00.963Z,13.98
2022-10-15T04:47:28.316Z,15.38
2022-10-15T04:49:55.679Z,16.80
2022-10-15T04:52:23.521Z,15.23
2022-10-15T04:54:51.009Z,15.50
2022-10-15T04:57:18.483Z,14.77
2022-10-15T04:59:46.207Z,14.60
2022-10-15T05:02:13.590Z,15.35
2022-10-15T05:04:41.178Z,15.35
2022-10-15T05:07:08.532Z,13.98
2022-10-15T05:09:37.283Z,14.88
2022-10-15T05:12:04.946Z,15.40
2022-10-15T05:14:32.412Z,15.52
2022-10-15T05:17:00.351Z,14.85
2022-10-15T05:19:27.758Z,15.00
2022-10-15T05:21:55.232Z,15.52
2022-10-15T05:24:22.705Z,13.88
2022-10-15T05:26:50.182Z,14.95
2022-10-15T05:29:17.665Z,16.38
2022-10-15T05:31:45.029Z,14.40
2022-10-15T05:34:12.883Z,15.75
2022-10-15T05:36:40.477Z,14.55
2022-10-15T05:39:10.720Z,14.52
2022-10-15T05:41:38.200Z,12.25
2022-10-15T05:44:05.675Z,14.07
2022-10-15T05:46:33.276Z,15.45
2022-10-15T05:49:00.890Z,13.75
2022-10-15T05:51:28.836Z,14.02
2022-10-15T05:53:57.041Z,13.65
2022-10-15T05:56:25.001Z,13.85
2022-10-15T05:58:52.607Z,12.80
2022-10-15T06:01:20.327Z,13.88
2022-10-15T06:03:48.051Z,12.23
2022-10-15T06:06:21.071Z,13.60
2022-10-15T06:08:50.221Z,12.68
2022-10-15T06:11:17.937Z,12.27
2022-10-15T06:13:46.374Z,13.95
2022-10-15T06:16:18.020Z,15.05
2022-10-15T06:18:48.536Z,13.43
2022-10-15T06:21:16.016Z,12.10
2022-10-15T06:23:43.378Z,12.07
2022-10-15T06:26:11.101Z,13.60
2022-10-15T06:28:39.512Z,13.57
2022-10-15T06:31:07.515Z,12.77
2022-10-15T06:33:36.129Z,12.43
2022-10-15T06:36:09.069Z,13.32
2022-10-15T06:38:37.395Z,11.65
2022-10-15T06:41:05.472Z,11.95
2022-10-15T06:43:35.184Z,13.02
2022-10-15T06:46:04.874Z,13.80
2022-10-15T06:48:32.959Z,13.00
2022-10-15T06:51:01.405Z,11.52
2022-10-15T06:53:29.971Z,13.55
2022-10-15T06:55:58.652Z,12.52
2022-10-15T06:58:26.844Z,12.05
2022-10-15T07:00:54.209Z,12.00
2022-10-15T07:03:21.848Z,13.07
2022-10-15T07:05:49.288Z,13.85
2022-10-15T07:08:19.231Z,13.45
2022-10-15T07:10:47.425Z,13.82
2022-10-15T07:13:14.728Z,13.55
2022-10-15T07:15:42.336Z,13.55
2022-10-15T07:18:10.057Z,12.95
2022-10-15T07:20:37.547Z,13.55
2022-10-15T07:23:05.019Z,12.43
2022-10-15T07:25:32.977Z,13.38
2022-10-15T07:28:00.704Z,11.93
2022-10-15T07:30:28.598Z,13.30
2022-10-15T07:32:57.352Z,12.25
2022-10-15T07:35:25.784Z,14.05
2022-10-15T07:37:53.510Z,12.98
2022-10-15T07:40:21.116Z,12.45
2022-10-15T07:42:55.915Z,14.20
2022-10-15T07:45:24.235Z,13.20
2022-10-15T07:47:52.192Z,11.77
2022-10-15T07:50:20.039Z,11.43
2022-10-15T07:52:47.429Z,11.45
2022-10-15T07:55:14.878Z,11.73
2022-10-15T07:57:42.364Z,11.98
2022-10-15T08:00:10.364Z,10.93
2022-10-15T08:02:37.937Z,10.57
2022-10-15T08:05:05.644Z,10.98
2022-10-15T08:07:33.372Z,10.45
2022-10-15T08:10:01.095Z,11.07
2022-10-15T08:12:28.577Z,10.65
2022-10-15T08:14:56.053Z,10.60
2022-10-15T08:17:23.417Z,11.18
2022-10-15T08:19:51.031Z,11.15
2022-10-15T08:22:18.658Z,10.02
2022-10-15T08:24:46.221Z,9.85
2022-10-15T08:27:14.342Z,10.38
2022-10-15T08:29:42.029Z,10.68
2022-10-15T08:32:09.871Z,10.23
2022-10-15T08:34:37.348Z,9.32
2022-10-15T08:37:05.228Z,10.50
2022-10-15T08:39:32.682Z,10.70
2022-10-15T08:42:06.153Z,10.57
2022-10-15T08:44:46.234Z,9.90
2022-10-15T08:47:47.796Z,9.45
2022-10-15T08:50:41.437Z,9.82
2022-10-15T08:53:14.926Z,8.20
2022-10-15T08:55:45.064Z,9.75
2022-10-15T08:58:44.686Z,8.20
2022-10-15T09:01:25.126Z,8.90
2022-10-15T09:04:03.762Z,8.95
2022-10-15T09:06:35.210Z,7.93
2022-10-15T09:09:31.029Z,9.15
2022-10-15T09:12:38.088Z,10.25
2022-10-15T09:15:12.768Z,10.93
2022-10-15T09:17:52.145Z,10.30
2022-10-15T09:20:39.918Z,10.93
2022-10-15T09:23:18.302Z,10.40
2022-10-15T09:25:50.342Z,10.27
2022-10-15T09:28:20.643Z,9.15
2022-10-15T09:30:51.660Z,9.65
2022-10-15T09:33:42.070Z,7.68
2022-10-15T09:36:15.461Z,8.68
2022-10-15T09:38:45.794Z,9.00
2022-10-15T09:41:32.839Z,9.40
2022-10-15T09:44:03.632Z,9.40
2022-10-15T09:46:33.450Z,8.00
2022-10-15T09:49:00.798Z,9.60
2022-10-15T09:52:07.756Z,9.27
2022-10-15T09:55:11.004Z,8.85
2022-10-15T09:57:39.819Z,8.32
2022-10-15T10:00:13.676Z,8.82
2022-10-15T10:02:41.795Z,7.30
2022-10-15T10:05:39.333Z,7.03
2022-10-15T10:08:31.898Z,6.40
2022-10-15T10:11:02.489Z,7.60
2022-10-15T10:13:40.123Z,6.85
2022-10-15T10:16:10.679Z,6.50
2022-10-15T10:18:38.740Z,5.35
2022-10-15T10:21:31.180Z,6.00
2022-10-15T10:24:19.421Z,6.97
2022-10-15T10:26:47.751Z,5.90
2022-10-15T10:29:33.574Z,5.47
2022-10-15T10:32:27.460Z,4.78
2022-10-15T10:34:55.061Z,5.78
2022-10-15T10:37:23.188Z,5.78
2022-10-15T10:39:59.029Z,4.93
2022-10-15T10:42:34.677Z,4.82
2022-10-15T10:45:18.864Z,5.15
2022-10-15T10:47:46.676Z,5.00
2022-10-15T10:50:32.878Z,4.65
2022-10-15T10:53:37.086Z,5.18
2022-10-15T10:56:05.404Z,6.35
2022-10-15T10:58:34.247Z,4.68
2022-10-15T11:01:01.731Z,5.20
2022-10-15T11:03:37.694Z,4.25
2022-10-15T11:06:08.040Z,5.15
2022-10-15T11:08:47.531Z,4.68
2022-10-15T11:11:24.249Z,5.47
2022-10-15T11:14:17.650Z,4.13
2022-10-15T11:16:58.338Z,4.75
2022-10-15T11:22:28.947Z,5.72
2022-10-15T11:25:28.595Z,4.82
2022-10-15T11:28:08.428Z,4.28
2022-10-15T11:31:06.506Z,4.78
2022-10-15T11:34:15.384Z,4.20
2022-10-15T11:37:07.585Z,3.78
2022-10-15T11:39:50.302Z,3.70
2022-10-15T11:42:29.670Z,4.35
2022-10-15T11:45:15.635Z,4.38
2022-10-15T11:48:01.433Z,3.92
2022-10-15T11:53:59.802Z,3.92
2022-10-15T11:56:36.346Z,3.75
2022-10-15T11:59:34.148Z,3.95
2022-10-15T12:02:06.176Z,3.97
2022-10-15T12:04:41.319Z,3.53
2022-10-15T12:09:41.939Z,3.63
2022-10-15T12:12:36.051Z,3.53
2022-10-15T12:15:22.366Z,3.72
2022-10-15T12:18:22.252Z,3.70
2022-10-15T12:20:49.858Z,3.25
2022-10-15T12:23:39.059Z,3.22
2022-10-15T12:26:24.799Z,2.92
2022-10-15T12:31:20.940Z,2.47
2022-10-15T12:33:52.501Z,2.60
2022-10-15T12:36:19.748Z,4.13
2022-10-15T12:39:00.669Z,4.05
2022-10-15T12:41:40.867Z,3.05
2022-10-15T12:44:34.516Z,3.33
2022-10-15T12:47:02.105Z,3.00
2022-10-15T12:49:32.593Z,3.17
2022-10-15T12:52:02.018Z,3.33
2022-10-15T12:54:35.233Z,3.05
2022-10-15T12:57:12.441Z,3.08
2022-10-15T12:59:46.161Z,2.92
2022-10-15T13:02:39.682Z,2.83
2022-10-15T13:05:12.587Z,2.72
2022-10-15T13:07:41.124Z,3.28
2022-10-15T13:10:29.129Z,2.90
2022-10-15T13:13:04.292Z,3.00
2022-10-15T13:15:32.972Z,2.70
2022-10-15T13:18:06.814Z,4.32
2022-10-15T13:20:37.285Z,3.22
2022-10-15T13:23:29.395Z,3.40
2022-10-15T13:26:13.293Z,2.72
2022-10-15T13:28:42.185Z,2.88
2022-10-15T13:31:20.582Z,2.20
2022-10-15T13:33:52.068Z,2.25
2022-10-15T13:36:26.152Z,2.15
2022-10-15T13:39:00.415Z,2.22
2022-10-15T13:41:31.904Z,2.50
2022-10-15T13:44:01.084Z,2.40
2022-10-15T13:46:34.311Z,1.95
2022-10-15T13:49:10.794Z,1.75
2022-10-15T13:51:40.797Z,2.17
2022-10-15T13:54:11.272Z,2.13
2022-10-15T13:56:47.790Z,1.80
2022-10-15T13:59:18.360Z,2.45
2022-10-15T14:02:00.978Z,1.90
2022-10-15T14:04:29.695Z,2.25
2022-10-15T14:07:03.144Z,1.90
2022-10-15T14:09:36.253Z,2.70
2022-10-15T14:12:07.925Z,2.03
2022-10-15T14:14:47.049Z,2.03
2022-10-15T14:17:17.682Z,2.10
2022-10-15T14:20:22.173Z,2.15
2022-10-15T14:22:49.328Z,1.77
2022-10-15T14:25:22.475Z,1.60
2022-10-15T14:27:50.052Z,1.45
2022-10-15T14:30:35.892Z,1.83
2022-10-15T14:33:03.625Z,1.92
2022-10-15T14:35:34.338Z,1.90
2022-10-15T14:38:14.435Z,1.70
2022-10-15T14:40:42.025Z,1.80
2022-10-15T14:43:17.451Z,1.70
2022-10-15T14:45:51.032Z,1.67
2022-10-15T14:48:24.986Z,1.73
2022-10-15T14:50:53.307Z,1.95
2022-10-15T14:53:24.876Z,2.00
2022-10-15T14:55:56.558Z,1.83
2022-10-15T14:58:25.354Z,1.73
2022-10-15T15:01:08.921Z,2.33
2022-10-15T15:03:42.037Z,2.08
2022-10-15T15:06:10.022Z,2.30
2022-10-15T15:08:37.957Z,1.80
2022-10-15T15:11:07.846Z,1.77
2022-10-15T15:13:41.204Z,2.40
2022-10-15T15:16:16.367Z,1.60
2022-10-15T15:18:46.396Z,1.55
2022-10-15T15:21:17.205Z,1.83
2022-10-15T15:23:44.842Z,1.50
2022-10-15T15:26:12.541Z,1.50
2022-10-15T15:28:40.049Z,1.65
2022-10-15T15:31:12.540Z,1.60
2022-10-15T15:33:41.460Z,1.25
2022-10-15T15:36:20.705Z,3.22
2022-10-15T15:38:51.342Z,1.65
2022-10-15T15:41:22.913Z,1.55
2022-10-15T15:43:50.965Z,1.33
2022-10-15T15:46:18.689Z,1.50
2022-10-15T15:48:46.408Z,1.70
2022-10-15T15:51:26.835Z,1.35
2022-10-15T15:53:55.279Z,1.42
2022-10-15T15:56:22.997Z,1.33
2022-10-15T15:58:51.189Z,1.58
2022-10-15T16:01:19.214Z,1.55
2022-10-15T16:03:47.121Z,1.60
2022-10-15T16:06:14.596Z,1.98
2022-10-15T16:08:42.090Z,2.17
2022-10-15T16:11:09.441Z,2.38
2022-10-15T16:13:36.801Z,2.70
2022-10-15T16:16:05.249Z,2.97
2022-10-15T16:18:32.843Z,2.75
2022-10-15T16:21:00.206Z,2.17
2022-10-15T16:23:27.575Z,3.50
2022-10-15T16:25:57.578Z,3.80
2022-10-15T16:28:25.229Z,3.35
2022-10-15T16:30:52.651Z,3.42
2022-10-15T16:33:20.147Z,3.30
2022-10-15T16:35:53.853Z,3.03
2022-10-15T16:38:21.346Z,3.42
2022-10-15T16:40:48.825Z,3.85
2022-10-15T16:43:16.178Z,3.03
2022-10-15T16:45:43.546Z,3.40
2022-10-15T16:48:11.031Z,2.90
2022-10-15T16:50:38.632Z,4.07
2022-10-15T16:53:06.120Z,8.05
2022-10-15T16:55:34.071Z,17.20
2022-10-15T16:58:01.675Z,15.48
2022-10-15T17:00:29.244Z,11.70
2022-10-15T17:02:56.755Z,8.00
2022-10-15T17:05:24.127Z,13.27
2022-10-15T17:07:51.597Z,13.73
2022-10-15T17:10:25.602Z,9.30
2022-10-15T17:12:53.526Z,9.85
2022-10-15T17:15:21.002Z,8.10
2022-10-15T17:17:48.966Z,7.50
2022-10-15T17:20:16.446Z,6.82
2022-10-15T17:22:43.929Z,6.15
2022-10-15T17:25:11.407Z,6.00
2022-10-15T17:27:38.912Z,6.55
2022-10-15T17:30:06.976Z,6.50
2022-10-15T17:32:34.694Z,7.45
2022-10-15T17:35:04.134Z,5.82
2022-10-15T17:37:32.068Z,7.35
2022-10-15T17:39:59.969Z,7.03
2022-10-15T17:42:27.782Z,6.38
2022-10-15T17:44:55.343Z,7.18
2022-10-15T17:47:23.064Z,6.63
2022-10-15T17:49:50.790Z,6.90
2022-10-15T17:52:18.510Z,7.90
2022-10-15T17:54:46.109Z,6.95
2022-10-15T17:57:13.590Z,7.30
2022-10-15T17:59:41.076Z,6.38
2022-10-15T18:02:10.318Z,6.30
2022-10-15T18:04:39.157Z,7.15
2022-10-15T18:07:06.878Z,7.43
2022-10-15T18:09:34.243Z,7.85
2022-10-15T18:12:02.215Z,6.35
2022-10-15T18:14:30.175Z,5.43
2022-10-15T18:16:58.365Z,6.47
2022-10-15T18:19:26.999Z,6.45
2022-10-15T18:21:55.714Z,5.80
2022-10-15T18:24:26.339Z,5.00
2022-10-15T18:26:54.192Z,6.10
2022-10-15T18:29:22.493Z,6.47
2022-10-15T18:31:54.814Z,5.85
2022-10-15T18:34:24.652Z,5.30
2022-10-15T18:36:52.136Z,5.40
2022-10-15T18:39:19.617Z,5.70
2022-10-15T18:41:46.986Z,6.25
2022-10-15T18:44:16.787Z,7.40
2022-10-15T18:46:45.669Z,5.55
2022-10-15T18:49:15.315Z,6.45
2022-10-15T18:51:46.034Z,5.75
2022-10-15T18:54:14.122Z,6.55
2022-10-15T18:56:41.720Z,6.28
2022-10-15T18:59:09.311Z,5.65
2022-10-15T19:01:39.261Z,6.13
2022-10-15T19:04:09.314Z,5.70
2022-10-15T19:06:39.921Z,5.60
2022-10-15T19:09:12.600Z,5.13
2022-10-15T19:11:41.981Z,5.07
2022-10-15T19:14:09.582Z,5.32
2022-10-15T19:16:37.519Z,5.72
2022-10-15T19:19:05.726Z,4.70
2022-10-15T19:21:33.204Z,5.63
2022-10-15T19:24:00.687Z,4.95
2022-10-15T19:26:28.651Z,5.22
2022-10-15T19:28:57.394Z,5.10
2022-10-15T19:31:29.135Z,5.63
2022-10-15T19:34:00.337Z,5.35
2022-10-15T19:36:34.292Z,5.63
2022-10-15T19:39:04.058Z,5.53
2022-10-15T19:41:31.539Z,4.80
2022-10-15T19:43:59.142Z,5.00
2022-10-15T19:46:26.986Z,5.13
2022-10-15T19:48:54.341Z,4.95
2022-10-15T19:51:22.302Z,5.35
2022-10-15T19:53:54.587Z,4.80
2022-10-15T19:56:22.308Z,4.00
2022-10-15T19:58:55.910Z,4.47
2022-10-15T20:01:23.329Z,4.32
2022-10-15T20:03:51.111Z,4.40
2022-10-15T20:06:19.195Z,4.35
2022-10-15T20:08:47.159Z,3.97
2022-10-15T20:11:14.633Z,4.18
2022-10-15T20:13:41.997Z,4.30
2022-10-15T20:16:14.277Z,4.75
2022-10-15T20:18:42.614Z,3.70
2022-10-15T20:21:11.893Z,3.85
2022-10-15T20:23:40.568Z,4.43
2022-10-15T20:26:10.808Z,4.22
2022-10-15T20:28:40.275Z,3.85
2022-10-15T20:31:12.852Z,3.70
2022-10-15T20:33:41.170Z,3.90
2022-10-15T20:36:23.447Z,3.78
2022-10-15T20:38:52.604Z,3.53
2022-10-15T20:41:20.302Z,3.45
2022-10-15T20:43:55.586Z,3.45
2022-10-15T20:46:27.500Z,3.85
2022-10-15T20:48:56.277Z,3.40
2022-10-15T20:51:27.621Z,3.47
2022-10-15T20:53:58.583Z,3.60
2022-10-15T20:56:26.074Z,3.25
2022-10-15T20:58:53.441Z,4.20
2022-10-15T21:01:21.066Z,3.28
2022-10-15T21:03:48.753Z,3.47
2022-10-15T21:06:16.280Z,3.75
2022-10-15T21:08:43.718Z,3.75
2022-10-15T21:11:11.194Z,4.38
2022-10-15T21:13:38.680Z,4.57
2022-10-15T21:16:07.239Z,4.32
2022-10-15T21:18:36.165Z,4.10
2022-10-15T21:21:06.062Z,4.95
2022-10-15T21:23:33.765Z,4.63
2022-10-15T21:26:07.964Z,4.22
2022-10-15T21:28:36.381Z,4.97
2022-10-15T21:31:15.774Z,4.60
2022-10-15T21:33:43.968Z,4.32
2022-10-15T21:36:22.611Z,4.20
2022-10-15T21:39:07.009Z,4.45
2022-10-15T21:41:37.269Z,4.80
2022-10-15T21:44:06.546Z,3.90
2022-10-15T21:46:34.618Z,4.88
2022-10-15T21:49:03.535Z,4.35
2022-10-15T21:51:32.582Z,4.10
2022-10-15T21:54:01.072Z,3.75
2022-10-15T21:56:28.760Z,3.70
2022-10-15T21:58:56.598Z,3.97
2022-10-15T22:01:26.431Z,3.78
2022-10-15T22:04:01.650Z,3.42
2022-10-15T22:06:29.830Z,3.42
2022-10-15T22:08:57.332Z,4.03
2022-10-15T22:11:30.079Z,3.25
2022-10-15T22:14:00.093Z,3.83
2022-10-15T22:16:28.534Z,3.63
2022-10-15T22:18:57.080Z,3.10
2022-10-15T22:21:25.888Z,3.30
2022-10-15T22:23:54.952Z,2.88
2022-10-15T22:26:25.645Z,3.15
2022-10-15T22:28:54.898Z,3.17
2022-10-15T22:31:23.011Z,4.07
2022-10-15T22:33:50.644Z,2.45
2022-10-15T22:36:26.783Z,2.78
2022-10-15T22:39:01.740Z,2.72
2022-10-15T22:41:31.173Z,2.70
2022-10-15T22:43:59.136Z,2.90
2022-10-15T22:46:27.108Z,2.65
2022-10-15T22:48:55.068Z,3.38
2022-10-15T22:51:22.560Z,3.28
2022-10-15T22:53:50.027Z,2.90
2022-10-15T22:56:18.834Z,3.13
2022-10-15T22:58:46.671Z,2.78
2022-10-15T23:01:21.888Z,2.70
2022-10-15T23:03:51.842Z,2.70
2022-10-15T23:06:20.389Z,2.85
2022-10-15T23:08:47.888Z,3.15
2022-10-15T23:11:20.509Z,2.40
2022-10-15T23:13:51.838Z,2.45
2022-10-15T23:16:29.402Z,2.60
2022-10-15T23:19:02.398Z,2.63
2022-10-15T23:21:36.722Z,2.97
2022-10-15T23:24:05.168Z,2.47
2022-10-15T23:26:32.781Z,2.40
2022-10-15T23:29:01.383Z,2.72
2022-10-15T23:31:31.563Z,2.97
2022-10-15T23:34:00.254Z,2.17
2022-10-15T23:36:29.411Z,2.10
2022-10-15T23:39:02.420Z,2.53
2022-10-15T23:41:30.398Z,2.20
2022-10-15T23:43:58.338Z,2.30
2022-10-15T23:46:26.069Z,2.70
2022-10-15T23:48:53.778Z,2.60
2022-10-15T23:51:26.535Z,2.30
2022-10-15T23:53:56.073Z,2.17
2022-10-15T23:56:23.671Z,2.42
2022-10-15T23:58:52.706Z,2.15
